sensor_id;sensor_type;location;lat;lon;timestamp;P1;durP1;ratioP1;P2;durP2;ratioP2
41546;SDS011;27271;45.412;10.852;2024-02-28T00:00:44;1.35;;;0.55;;
41546;SDS011;27271;45.412;10.852;2024-02-28T00:04:07;2.72;;;0.50;;
41546;SDS011;27271;45.412;10.852;2024-02-28T00:07:29;0.63;;;0.40;;
41546;SDS011;27271;45.412;10.852;2024-02-28T00:10:51;0.82;;;0.50;;
41546;SDS011;27271;45.412;10.852;2024-02-28T00:14:14;0.85;;;0.50;;
41546;SDS011;27271;45.412;10.852;2024-02-28T00:17:39;0.95;;;0.50;;
41546;SDS011;27271;45.412;10.852;2024-02-28T00:21:02;4.10;;;0.70;;
41546;SDS011;27271;45.412;10.852;2024-02-28T00:24:25;1.67;;;0.88;;
41546;SDS011;27271;45.412;10.852;2024-02-28T00:27:47;2.42;;;0.90;;
41546;SDS011;27271;45.412;10.852;2024-02-28T00:31:09;2.15;;;0.70;;
41546;SDS011;27271;45.412;10.852;2024-02-28T00:34:31;3.15;;;0.95;;
41546;SDS011;27271;45.412;10.852;2024-02-28T00:37:53;1.50;;;0.90;;
41546;SDS011;27271;45.412;10.852;2024-02-28T00:41:15;2.67;;;0.75;;
41546;SDS011;27271;45.412;10.852;2024-02-28T00:44:37;1.33;;;0.90;;
41546;SDS011;27271;45.412;10.852;2024-02-28T00:47:59;2.00;;;1.00;;
41546;SDS011;27271;45.412;10.852;2024-02-28T00:51:21;2.90;;;0.98;;
41546;SDS011;27271;45.412;10.852;2024-02-28T00:54:43;1.40;;;0.52;;
41546;SDS011;27271;45.412;10.852;2024-02-28T00:58:06;1.05;;;0.57;;
41546;SDS011;27271;45.412;10.852;2024-02-28T01:01:28;0.90;;;0.80;;
41546;SDS011;27271;45.412;10.852;2024-02-28T01:04:50;1.10;;;0.70;;
41546;SDS011;27271;45.412;10.852;2024-02-28T01:08:12;1.48;;;0.75;;
41546;SDS011;27271;45.412;10.852;2024-02-28T01:11:34;1.33;;;0.73;;
41546;SDS011;27271;45.412;10.852;2024-02-28T01:14:56;2.20;;;0.90;;
41546;SDS011;27271;45.412;10.852;2024-02-28T01:18:18;2.08;;;0.90;;
41546;SDS011;27271;45.412;10.852;2024-02-28T01:21:40;1.55;;;0.40;;
41546;SDS011;27271;45.412;10.852;2024-02-28T01:25:02;1.25;;;0.60;;
41546;SDS011;27271;45.412;10.852;2024-02-28T01:28:25;1.27;;;0.80;;
41546;SDS011;27271;45.412;10.852;2024-02-28T01:31:47;1.55;;;0.80;;
41546;SDS011;27271;45.412;10.852;2024-02-28T01:35:09;2.42;;;0.98;;
41546;SDS011;27271;45.412;10.852;2024-02-28T01:38:31;1.48;;;0.90;;
41546;SDS011;27271;45.412;10.852;2024-02-28T01:41:53;1.85;;;1.10;;
41546;SDS011;27271;45.412;10.852;2024-02-28T01:45:15;1.42;;;0.80;;
41546;SDS011;27271;45.412;10.852;2024-02-28T01:48:38;1.92;;;0.60;;
41546;SDS011;27271;45.412;10.852;2024-02-28T01:52:00;2.20;;;0.60;;
41546;SDS011;27271;45.412;10.852;2024-02-28T01:55:22;3.10;;;0.60;;
41546;SDS011;27271;45.412;10.852;2024-02-28T01:58:46;1.23;;;0.65;;
41546;SDS011;27271;45.412;10.852;2024-02-28T02:02:09;0.93;;;0.70;;
41546;SDS011;27271;45.412;10.852;2024-02-28T02:05:31;2.35;;;0.90;;
41546;SDS011;27271;45.412;10.852;2024-02-28T02:08:53;1.70;;;0.70;;
41546;SDS011;27271;45.412;10.852;2024-02-28T02:12:16;0.60;;;0.45;;
41546;SDS011;27271;45.412;10.852;2024-02-28T02:15:38;3.30;;;0.90;;
41546;SDS011;27271;45.412;10.852;2024-02-28T02:19:00;1.45;;;0.63;;
41546;SDS011;27271;45.412;10.852;2024-02-28T02:22:22;0.73;;;0.60;;
41546;SDS011;27271;45.412;10.852;2024-02-28T02:25:48;0.93;;;0.68;;
41546;SDS011;27271;45.412;10.852;2024-02-28T02:29:10;1.30;;;0.82;;
41546;SDS011;27271;45.412;10.852;2024-02-28T02:32:32;1.33;;;0.88;;
41546;SDS011;27271;45.412;10.852;2024-02-28T02:35:54;2.03;;;0.90;;
41546;SDS011;27271;45.412;10.852;2024-02-28T02:39:16;1.20;;;1.00;;
41546;SDS011;27271;45.412;10.852;2024-02-28T02:42:38;1.80;;;1.00;;
41546;SDS011;27271;45.412;10.852;2024-02-28T02:46:01;1.90;;;0.90;;
41546;SDS011;27271;45.412;10.852;2024-02-28T02:49:23;1.30;;;0.90;;
41546;SDS011;27271;45.412;10.852;2024-02-28T02:52:45;1.60;;;1.00;;
41546;SDS011;27271;45.412;10.852;2024-02-28T02:56:07;1.25;;;1.15;;
41546;SDS011;27271;45.412;10.852;2024-02-28T02:59:29;2.72;;;1.13;;
41546;SDS011;27271;45.412;10.852;2024-02-28T03:02:51;1.08;;;0.93;;
41546;SDS011;27271;45.412;10.852;2024-02-28T03:06:13;4.03;;;0.90;;
41546;SDS011;27271;45.412;10.852;2024-02-28T03:09:36;1.20;;;1.00;;
41546;SDS011;27271;45.412;10.852;2024-02-28T03:12:58;1.27;;;0.93;;
41546;SDS011;27271;45.412;10.852;2024-02-28T03:16:20;2.20;;;0.90;;
41546;SDS011;27271;45.412;10.852;2024-02-28T03:19:42;1.42;;;0.80;;
41546;SDS011;27271;45.412;10.852;2024-02-28T03:23:04;1.65;;;1.15;;
41546;SDS011;27271;45.412;10.852;2024-02-28T03:26:27;2.33;;;1.02;;
41546;SDS011;27271;45.412;10.852;2024-02-28T03:29:49;1.02;;;0.90;;
41546;SDS011;27271;45.412;10.852;2024-02-28T03:33:11;2.58;;;1.08;;
41546;SDS011;27271;45.412;10.852;2024-02-28T03:36:34;1.15;;;0.80;;
41546;SDS011;27271;45.412;10.852;2024-02-28T03:39:56;1.15;;;0.88;;
41546;SDS011;27271;45.412;10.852;2024-02-28T03:43:18;1.73;;;1.08;;
41546;SDS011;27271;45.412;10.852;2024-02-28T03:46:41;0.82;;;0.63;;
41546;SDS011;27271;45.412;10.852;2024-02-28T03:50:03;1.45;;;0.70;;
41546;SDS011;27271;45.412;10.852;2024-02-28T03:53:25;0.95;;;0.80;;
41546;SDS011;27271;45.412;10.852;2024-02-28T03:56:48;1.30;;;0.95;;
41546;SDS011;27271;45.412;10.852;2024-02-28T04:00:10;2.05;;;0.85;;
41546;SDS011;27271;45.412;10.852;2024-02-28T04:03:33;1.77;;;0.90;;
41546;SDS011;27271;45.412;10.852;2024-02-28T04:06:56;2.92;;;1.20;;
41546;SDS011;27271;45.412;10.852;2024-02-28T04:10:18;2.65;;;0.98;;
41546;SDS011;27271;45.412;10.852;2024-02-28T04:13:40;1.17;;;0.90;;
41546;SDS011;27271;45.412;10.852;2024-02-28T04:17:02;1.92;;;1.23;;
41546;SDS011;27271;45.412;10.852;2024-02-28T04:20:24;2.20;;;1.20;;
41546;SDS011;27271;45.412;10.852;2024-02-28T04:23:46;1.95;;;1.38;;
41546;SDS011;27271;45.412;10.852;2024-02-28T04:27:08;6.80;;;1.60;;
41546;SDS011;27271;45.412;10.852;2024-02-28T04:30:33;2.70;;;1.10;;
41546;SDS011;27271;45.412;10.852;2024-02-28T04:33:55;2.90;;;1.65;;
41546;SDS011;27271;45.412;10.852;2024-02-28T04:37:17;1.90;;;1.30;;
41546;SDS011;27271;45.412;10.852;2024-02-28T04:40:39;5.35;;;1.67;;
41546;SDS011;27271;45.412;10.852;2024-02-28T04:44:01;3.30;;;1.88;;
41546;SDS011;27271;45.412;10.852;2024-02-28T04:47:24;3.70;;;2.05;;
41546;SDS011;27271;45.412;10.852;2024-02-28T04:50:56;4.97;;;1.70;;
41546;SDS011;27271;45.412;10.852;2024-02-28T04:54:18;3.08;;;1.60;;
41546;SDS011;27271;45.412;10.852;2024-02-28T04:57:40;3.90;;;1.90;;
41546;SDS011;27271;45.412;10.852;2024-02-28T05:01:03;2.55;;;1.80;;
41546;SDS011;27271;45.412;10.852;2024-02-28T05:04:25;3.25;;;1.90;;
41546;SDS011;27271;45.412;10.852;2024-02-28T05:07:48;2.70;;;1.83;;
41546;SDS011;27271;45.412;10.852;2024-02-28T05:11:10;3.00;;;1.80;;
41546;SDS011;27271;45.412;10.852;2024-02-28T05:14:32;4.32;;;1.90;;
41546;SDS011;27271;45.412;10.852;2024-02-28T05:17:54;3.95;;;2.00;;
41546;SDS011;27271;45.412;10.852;2024-02-28T05:21:16;6.55;;;2.03;;
41546;SDS011;27271;45.412;10.852;2024-02-28T05:24:39;4.03;;;1.80;;
41546;SDS011;27271;45.412;10.852;2024-02-28T05:28:01;5.35;;;2.50;;
41546;SDS011;27271;45.412;10.852;2024-02-28T05:31:24;3.72;;;1.98;;
41546;SDS011;27271;45.412;10.852;2024-02-28T05:34:47;2.10;;;1.90;;
41546;SDS011;27271;45.412;10.852;2024-02-28T05:38:10;4.47;;;1.85;;
41546;SDS011;27271;45.412;10.852;2024-02-28T05:41:32;1.92;;;1.38;;
41546;SDS011;27271;45.412;10.852;2024-02-28T05:44:54;2.03;;;1.10;;
41546;SDS011;27271;45.412;10.852;2024-02-28T05:48:16;2.03;;;1.13;;
41546;SDS011;27271;45.412;10.852;2024-02-28T05:51:38;1.25;;;0.88;;
41546;SDS011;27271;45.412;10.852;2024-02-28T05:55:01;1.95;;;1.02;;
41546;SDS011;27271;45.412;10.852;2024-02-28T05:58:23;1.15;;;0.80;;
41546;SDS011;27271;45.412;10.852;2024-02-28T06:01:47;2.08;;;1.15;;
41546;SDS011;27271;45.412;10.852;2024-02-28T06:05:09;2.30;;;1.02;;
41546;SDS011;27271;45.412;10.852;2024-02-28T06:08:38;2.05;;;1.00;;
41546;SDS011;27271;45.412;10.852;2024-02-28T06:12:01;1.45;;;1.00;;
41546;SDS011;27271;45.412;10.852;2024-02-28T06:15:26;1.27;;;0.68;;
41546;SDS011;27271;45.412;10.852;2024-02-28T06:18:48;1.15;;;0.68;;
41546;SDS011;27271;45.412;10.852;2024-02-28T06:22:10;0.73;;;0.63;;
41546;SDS011;27271;45.412;10.852;2024-02-28T06:25:32;2.88;;;1.05;;
41546;SDS011;27271;45.412;10.852;2024-02-28T06:28:55;0.45;;;0.38;;
41546;SDS011;27271;45.412;10.852;2024-02-28T06:32:23;0.80;;;0.57;;
41546;SDS011;27271;45.412;10.852;2024-02-28T06:35:46;1.05;;;0.50;;
41546;SDS011;27271;45.412;10.852;2024-02-28T06:39:08;0.88;;;0.52;;
41546;SDS011;27271;45.412;10.852;2024-02-28T06:42:30;0.88;;;0.57;;
41546;SDS011;27271;45.412;10.852;2024-02-28T06:45:52;0.50;;;0.50;;
41546;SDS011;27271;45.412;10.852;2024-02-28T06:49:14;0.90;;;0.73;;
41546;SDS011;27271;45.412;10.852;2024-02-28T06:52:37;2.33;;;0.90;;
41546;SDS011;27271;45.412;10.852;2024-02-28T06:56:00;4.97;;;0.93;;
41546;SDS011;27271;45.412;10.852;2024-02-28T06:59:23;2.38;;;1.00;;
41546;SDS011;27271;45.412;10.852;2024-02-28T07:02:45;2.78;;;1.05;;
41546;SDS011;27271;45.412;10.852;2024-02-28T07:06:07;4.80;;;2.08;;
41546;SDS011;27271;45.412;10.852;2024-02-28T07:09:29;4.35;;;2.30;;
41546;SDS011;27271;45.412;10.852;2024-02-28T07:12:54;4.82;;;2.72;;
41546;SDS011;27271;45.412;10.852;2024-02-28T07:16:16;2.60;;;2.15;;
41546;SDS011;27271;45.412;10.852;2024-02-28T07:19:38;5.53;;;1.77;;
41546;SDS011;27271;45.412;10.852;2024-02-28T07:23:00;4.80;;;2.13;;
41546;SDS011;27271;45.412;10.852;2024-02-28T07:26:22;4.25;;;2.10;;
41546;SDS011;27271;45.412;10.852;2024-02-28T07:29:48;7.32;;;2.10;;
41546;SDS011;27271;45.412;10.852;2024-02-28T07:33:10;5.22;;;2.45;;
41546;SDS011;27271;45.412;10.852;2024-02-28T07:36:32;6.30;;;4.35;;
41546;SDS011;27271;45.412;10.852;2024-02-28T07:39:55;5.03;;;2.35;;
41546;SDS011;27271;45.412;10.852;2024-02-28T07:43:17;4.88;;;2.22;;
41546;SDS011;27271;45.412;10.852;2024-02-28T07:46:40;6.47;;;2.08;;
41546;SDS011;27271;45.412;10.852;2024-02-28T07:50:03;5.68;;;2.50;;
41546;SDS011;27271;45.412;10.852;2024-02-28T07:53:26;6.18;;;2.80;;
41546;SDS011;27271;45.412;10.852;2024-02-28T07:56:48;7.53;;;3.97;;
41546;SDS011;27271;45.412;10.852;2024-02-28T08:00:12;4.85;;;3.10;;
41546;SDS011;27271;45.412;10.852;2024-02-28T08:03:35;7.32;;;3.67;;
41546;SDS011;27271;45.412;10.852;2024-02-28T08:06:57;5.07;;;3.80;;
41546;SDS011;27271;45.412;10.852;2024-02-28T08:10:19;5.00;;;2.30;;
41546;SDS011;27271;45.412;10.852;2024-02-28T08:13:42;4.97;;;2.60;;
41546;SDS011;27271;45.412;10.852;2024-02-28T08:17:05;4.32;;;2.10;;
41546;SDS011;27271;45.412;10.852;2024-02-28T08:20:27;6.97;;;3.17;;
41546;SDS011;27271;45.412;10.852;2024-02-28T08:23:49;6.55;;;3.42;;
41546;SDS011;27271;45.412;10.852;2024-02-28T08:27:11;4.13;;;2.40;;
41546;SDS011;27271;45.412;10.852;2024-02-28T08:30:33;4.82;;;2.55;;
41546;SDS011;27271;45.412;10.852;2024-02-28T08:33:56;4.65;;;2.95;;
41546;SDS011;27271;45.412;10.852;2024-02-28T08:37:18;7.28;;;3.45;;
41546;SDS011;27271;45.412;10.852;2024-02-28T08:40:40;3.33;;;2.40;;
41546;SDS011;27271;45.412;10.852;2024-02-28T08:44:02;5.60;;;3.50;;
41546;SDS011;27271;45.412;10.852;2024-02-28T08:47:24;5.00;;;3.00;;
41546;SDS011;27271;45.412;10.852;2024-02-28T08:50:47;9.45;;;3.22;;
41546;SDS011;27271;45.412;10.852;2024-02-28T08:54:09;6.60;;;2.40;;
41546;SDS011;27271;45.412;10.852;2024-02-28T08:57:31;5.88;;;3.17;;
41546;SDS011;27271;45.412;10.852;2024-02-28T09:00:53;8.02;;;3.80;;
41546;SDS011;27271;45.412;10.852;2024-02-28T09:04:16;6.30;;;3.60;;
41546;SDS011;27271;45.412;10.852;2024-02-28T09:07:38;4.28;;;3.10;;
41546;SDS011;27271;45.412;10.852;2024-02-28T09:11:00;4.70;;;2.88;;
41546;SDS011;27271;45.412;10.852;2024-02-28T09:14:23;2.75;;;1.80;;
41546;SDS011;27271;45.412;10.852;2024-02-28T09:17:45;3.22;;;1.40;;
41546;SDS011;27271;45.412;10.852;2024-02-28T09:21:08;2.78;;;1.70;;
41546;SDS011;27271;45.412;10.852;2024-02-28T09:24:30;4.45;;;1.58;;
41546;SDS011;27271;45.412;10.852;2024-02-28T09:27:53;2.97;;;1.58;;
41546;SDS011;27271;45.412;10.852;2024-02-28T09:31:15;3.38;;;1.63;;
41546;SDS011;27271;45.412;10.852;2024-02-28T09:34:37;2.83;;;1.25;;
41546;SDS011;27271;45.412;10.852;2024-02-28T09:37:59;2.67;;;1.38;;
41546;SDS011;27271;45.412;10.852;2024-02-28T09:41:21;2.83;;;1.50;;
41546;SDS011;27271;45.412;10.852;2024-02-28T09:44:44;3.95;;;1.60;;
41546;SDS011;27271;45.412;10.852;2024-02-28T09:48:07;2.72;;;1.27;;
41546;SDS011;27271;45.412;10.852;2024-02-28T09:51:34;3.78;;;1.48;;
41546;SDS011;27271;45.412;10.852;2024-02-28T09:54:57;4.85;;;1.38;;
41546;SDS011;27271;45.412;10.852;2024-02-28T09:58:19;2.45;;;1.38;;
41546;SDS011;27271;45.412;10.852;2024-02-28T10:01:47;2.85;;;0.82;;
41546;SDS011;27271;45.412;10.852;2024-02-28T10:05:18;4.03;;;1.65;;
41546;SDS011;27271;45.412;10.852;2024-02-28T10:08:40;4.47;;;1.70;;
41546;SDS011;27271;45.412;10.852;2024-02-28T10:12:03;6.30;;;1.88;;
41546;SDS011;27271;45.412;10.852;2024-02-28T10:15:28;3.92;;;1.58;;
41546;SDS011;27271;45.412;10.852;2024-02-28T10:18:50;2.13;;;1.50;;
41546;SDS011;27271;45.412;10.852;2024-02-28T10:22:12;2.30;;;1.20;;
41546;SDS011;27271;45.412;10.852;2024-02-28T10:25:41;2.42;;;1.50;;
41546;SDS011;27271;45.412;10.852;2024-02-28T10:29:17;5.32;;;1.65;;
41546;SDS011;27271;45.412;10.852;2024-02-28T10:32:47;3.05;;;1.52;;
41546;SDS011;27271;45.412;10.852;2024-02-28T10:36:10;4.63;;;1.05;;
41546;SDS011;27271;45.412;10.852;2024-02-28T10:39:33;8.80;;;1.70;;
41546;SDS011;27271;45.412;10.852;2024-02-28T10:42:57;2.28;;;1.02;;
41546;SDS011;27271;45.412;10.852;2024-02-28T10:46:21;3.85;;;1.42;;
41546;SDS011;27271;45.412;10.852;2024-02-28T10:49:57;3.80;;;1.10;;
41546;SDS011;27271;45.412;10.852;2024-02-28T10:53:20;4.60;;;1.10;;
41546;SDS011;27271;45.412;10.852;2024-02-28T10:56:45;3.70;;;1.65;;
41546;SDS011;27271;45.412;10.852;2024-02-28T11:00:07;3.53;;;1.63;;
41546;SDS011;27271;45.412;10.852;2024-02-28T11:03:30;3.05;;;1.30;;
41546;SDS011;27271;45.412;10.852;2024-02-28T11:06:54;4.35;;;1.65;;
41546;SDS011;27271;45.412;10.852;2024-02-28T11:10:18;3.35;;;1.15;;
41546;SDS011;27271;45.412;10.852;2024-02-28T11:13:53;4.30;;;1.35;;
41546;SDS011;27271;45.412;10.852;2024-02-28T11:17:17;3.53;;;1.30;;
41546;SDS011;27271;45.412;10.852;2024-02-28T11:20:49;1.67;;;1.00;;
41546;SDS011;27271;45.412;10.852;2024-02-28T11:24:12;2.47;;;0.95;;
41546;SDS011;27271;45.412;10.852;2024-02-28T11:27:44;3.97;;;1.30;;
41546;SDS011;27271;45.412;10.852;2024-02-28T11:31:07;4.50;;;1.10;;
41546;SDS011;27271;45.412;10.852;2024-02-28T11:34:30;1.77;;;0.75;;
41546;SDS011;27271;45.412;10.852;2024-02-28T11:37:53;2.22;;;0.95;;
41546;SDS011;27271;45.412;10.852;2024-02-28T11:41:25;1.52;;;0.98;;
41546;SDS011;27271;45.412;10.852;2024-02-28T11:44:54;2.47;;;0.85;;
41546;SDS011;27271;45.412;10.852;2024-02-28T11:48:22;1.50;;;0.90;;
41546;SDS011;27271;45.412;10.852;2024-02-28T11:51:44;2.92;;;0.82;;
41546;SDS011;27271;45.412;10.852;2024-02-28T11:55:07;5.07;;;1.10;;
41546;SDS011;27271;45.412;10.852;2024-02-28T11:58:29;3.55;;;0.90;;
41546;SDS011;27271;45.412;10.852;2024-02-28T12:01:51;2.53;;;0.80;;
41546;SDS011;27271;45.412;10.852;2024-02-28T12:05:13;2.03;;;1.23;;
41546;SDS011;27271;45.412;10.852;2024-02-28T12:08:35;22.25;;;13.48;;
41546;SDS011;27271;45.412;10.852;2024-02-28T12:12:00;12.60;;;7.95;;
41546;SDS011;27271;45.412;10.852;2024-02-28T12:15:23;3.72;;;1.92;;
41546;SDS011;27271;45.412;10.852;2024-02-28T12:18:46;2.55;;;1.60;;
41546;SDS011;27271;45.412;10.852;2024-02-28T12:22:09;6.88;;;1.80;;
41546;SDS011;27271;45.412;10.852;2024-02-28T12:25:32;4.28;;;1.30;;
41546;SDS011;27271;45.412;10.852;2024-02-28T12:28:54;4.55;;;1.75;;
41546;SDS011;27271;45.412;10.852;2024-02-28T12:32:16;4.88;;;1.52;;
41546;SDS011;27271;45.412;10.852;2024-02-28T12:35:42;6.50;;;2.65;;
41546;SDS011;27271;45.412;10.852;2024-02-28T12:39:04;7.55;;;4.35;;
41546;SDS011;27271;45.412;10.852;2024-02-28T12:42:28;11.02;;;4.80;;
41546;SDS011;27271;45.412;10.852;2024-02-28T12:45:50;5.63;;;2.75;;
41546;SDS011;27271;45.412;10.852;2024-02-28T12:49:12;10.48;;;3.50;;
41546;SDS011;27271;45.412;10.852;2024-02-28T12:52:34;7.35;;;3.88;;
41546;SDS011;27271;45.412;10.852;2024-02-28T12:55:59;5.57;;;2.70;;
41546;SDS011;27271;45.412;10.852;2024-02-28T12:59:21;4.90;;;2.35;;
41546;SDS011;27271;45.412;10.852;2024-02-28T13:02:44;3.25;;;1.90;;
41546;SDS011;27271;45.412;10.852;2024-02-28T13:06:06;6.28;;;2.22;;
41546;SDS011;27271;45.412;10.852;2024-02-28T13:09:28;8.13;;;4.13;;
41546;SDS011;27271;45.412;10.852;2024-02-28T13:12:50;6.35;;;3.03;;
41546;SDS011;27271;45.412;10.852;2024-02-28T13:16:12;3.28;;;2.20;;
41546;SDS011;27271;45.412;10.852;2024-02-28T13:19:35;4.95;;;2.15;;
41546;SDS011;27271;45.412;10.852;2024-02-28T13:22:57;7.18;;;2.63;;
41546;SDS011;27271;45.412;10.852;2024-02-28T13:26:22;7.25;;;2.50;;
41546;SDS011;27271;45.412;10.852;2024-02-28T13:29:44;8.75;;;3.15;;
41546;SDS011;27271;45.412;10.852;2024-02-28T13:33:06;4.90;;;2.60;;
41546;SDS011;27271;45.412;10.852;2024-02-28T13:36:29;6.50;;;2.97;;
41546;SDS011;27271;45.412;10.852;2024-02-28T13:39:54;7.60;;;3.30;;
41546;SDS011;27271;45.412;10.852;2024-02-28T13:43:17;18.67;;;9.27;;
41546;SDS011;27271;45.412;10.852;2024-02-28T13:46:39;7.45;;;2.95;;
41546;SDS011;27271;45.412;10.852;2024-02-28T13:50:02;5.18;;;2.22;;
41546;SDS011;27271;45.412;10.852;2024-02-28T13:53:25;4.57;;;2.08;;
41546;SDS011;27271;45.412;10.852;2024-02-28T13:56:47;4.50;;;2.92;;
41546;SDS011;27271;45.412;10.852;2024-02-28T14:00:09;4.95;;;2.90;;
41546;SDS011;27271;45.412;10.852;2024-02-28T14:03:34;6.43;;;2.63;;
41546;SDS011;27271;45.412;10.852;2024-02-28T14:06:57;3.33;;;2.22;;
41546;SDS011;27271;45.412;10.852;2024-02-28T14:10:19;11.45;;;4.32;;
41546;SDS011;27271;45.412;10.852;2024-02-28T14:13:41;6.43;;;3.28;;
41546;SDS011;27271;45.412;10.852;2024-02-28T14:17:03;4.88;;;2.40;;
41546;SDS011;27271;45.412;10.852;2024-02-28T14:20:25;4.75;;;2.92;;
41546;SDS011;27271;45.412;10.852;2024-02-28T14:23:49;5.85;;;2.97;;
41546;SDS011;27271;45.412;10.852;2024-02-28T14:27:11;5.50;;;2.90;;
41546;SDS011;27271;45.412;10.852;2024-02-28T14:30:33;4.95;;;2.50;;
41546;SDS011;27271;45.412;10.852;2024-02-28T14:33:55;6.80;;;2.58;;
41546;SDS011;27271;45.412;10.852;2024-02-28T14:37:19;7.28;;;2.38;;
41546;SDS011;27271;45.412;10.852;2024-02-28T14:40:41;8.80;;;4.30;;
41546;SDS011;27271;45.412;10.852;2024-02-28T14:44:03;8.88;;;3.70;;
41546;SDS011;27271;45.412;10.852;2024-02-28T14:47:26;7.57;;;3.47;;
41546;SDS011;27271;45.412;10.852;2024-02-28T14:50:48;7.43;;;4.50;;
41546;SDS011;27271;45.412;10.852;2024-02-28T14:54:10;7.93;;;5.18;;
41546;SDS011;27271;45.412;10.852;2024-02-28T14:57:32;9.88;;;5.45;;
41546;SDS011;27271;45.412;10.852;2024-02-28T15:00:56;9.32;;;4.90;;
41546;SDS011;27271;45.412;10.852;2024-02-28T15:04:21;8.15;;;4.22;;
41546;SDS011;27271;45.412;10.852;2024-02-28T15:07:43;10.75;;;4.45;;
41546;SDS011;27271;45.412;10.852;2024-02-28T15:11:06;12.80;;;5.85;;
41546;SDS011;27271;45.412;10.852;2024-02-28T15:14:28;9.25;;;4.80;;
41546;SDS011;27271;45.412;10.852;2024-02-28T15:17:51;7.95;;;4.82;;
41546;SDS011;27271;45.412;10.852;2024-02-28T15:21:14;8.70;;;5.15;;
41546;SDS011;27271;45.412;10.852;2024-02-28T15:24:36;6.95;;;4.65;;
41546;SDS011;27271;45.412;10.852;2024-02-28T15:27:59;10.95;;;5.55;;
41546;SDS011;27271;45.412;10.852;2024-02-28T15:31:21;7.85;;;4.25;;
41546;SDS011;27271;45.412;10.852;2024-02-28T15:34:44;8.23;;;4.13;;
41546;SDS011;27271;45.412;10.852;2024-02-28T15:38:07;6.25;;;4.18;;
41546;SDS011;27271;45.412;10.852;2024-02-28T15:41:29;8.18;;;4.43;;
41546;SDS011;27271;45.412;10.852;2024-02-28T15:44:51;8.45;;;4.50;;
41546;SDS011;27271;45.412;10.852;2024-02-28T15:48:13;7.75;;;5.65;;
41546;SDS011;27271;45.412;10.852;2024-02-28T15:51:36;8.98;;;4.45;;
41546;SDS011;27271;45.412;10.852;2024-02-28T15:54:58;7.13;;;4.45;;
41546;SDS011;27271;45.412;10.852;2024-02-28T15:58:20;6.47;;;4.30;;
41546;SDS011;27271;45.412;10.852;2024-02-28T16:01:43;6.93;;;3.55;;
41546;SDS011;27271;45.412;10.852;2024-02-28T16:05:05;9.88;;;4.93;;
41546;SDS011;27271;45.412;10.852;2024-02-28T16:08:27;10.18;;;5.35;;
41546;SDS011;27271;45.412;10.852;2024-02-28T16:11:49;8.88;;;5.20;;
41546;SDS011;27271;45.412;10.852;2024-02-28T16:15:12;8.63;;;4.47;;
41546;SDS011;27271;45.412;10.852;2024-02-28T16:18:41;7.30;;;4.07;;
41546;SDS011;27271;45.412;10.852;2024-02-28T16:22:05;8.93;;;4.20;;
41546;SDS011;27271;45.412;10.852;2024-02-28T16:25:29;7.32;;;3.90;;
41546;SDS011;27271;45.412;10.852;2024-02-28T16:28:55;6.75;;;3.78;;
41546;SDS011;27271;45.412;10.852;2024-02-28T16:32:19;6.75;;;3.75;;
41546;SDS011;27271;45.412;10.852;2024-02-28T16:35:41;6.00;;;3.33;;
41546;SDS011;27271;45.412;10.852;2024-02-28T16:39:03;7.85;;;3.67;;
41546;SDS011;27271;45.412;10.852;2024-02-28T16:42:26;6.68;;;3.83;;
41546;SDS011;27271;45.412;10.852;2024-02-28T16:45:48;19.40;;;13.50;;
41546;SDS011;27271;45.412;10.852;2024-02-28T16:49:11;7.18;;;4.53;;
41546;SDS011;27271;45.412;10.852;2024-02-28T16:52:33;13.30;;;6.03;;
41546;SDS011;27271;45.412;10.852;2024-02-28T16:55:56;17.00;;;7.40;;
41546;SDS011;27271;45.412;10.852;2024-02-28T16:59:21;9.43;;;4.32;;
41546;SDS011;27271;45.412;10.852;2024-02-28T17:02:43;7.05;;;3.90;;
41546;SDS011;27271;45.412;10.852;2024-02-28T17:06:06;8.13;;;3.83;;
41546;SDS011;27271;45.412;10.852;2024-02-28T17:09:28;8.02;;;4.15;;
41546;SDS011;27271;45.412;10.852;2024-02-28T17:12:52;8.00;;;4.55;;
41546;SDS011;27271;45.412;10.852;2024-02-28T17:16:15;12.68;;;4.75;;
41546;SDS011;27271;45.412;10.852;2024-02-28T17:19:39;8.57;;;4.22;;
41546;SDS011;27271;45.412;10.852;2024-02-28T17:23:03;8.75;;;4.72;;
41546;SDS011;27271;45.412;10.852;2024-02-28T17:26:26;9.73;;;5.03;;
41546;SDS011;27271;45.412;10.852;2024-02-28T17:29:49;12.35;;;5.22;;
41546;SDS011;27271;45.412;10.852;2024-02-28T17:33:11;13.50;;;6.68;;
41546;SDS011;27271;45.412;10.852;2024-02-28T17:36:34;13.52;;;6.80;;
41546;SDS011;27271;45.412;10.852;2024-02-28T17:39:56;16.45;;;7.85;;
41546;SDS011;27271;45.412;10.852;2024-02-28T17:43:19;10.75;;;5.93;;
41546;SDS011;27271;45.412;10.852;2024-02-28T17:46:41;14.55;;;5.57;;
41546;SDS011;27271;45.412;10.852;2024-02-28T17:50:05;10.68;;;4.90;;
41546;SDS011;27271;45.412;10.852;2024-02-28T17:53:29;11.73;;;5.25;;
41546;SDS011;27271;45.412;10.852;2024-02-28T17:56:51;12.80;;;5.65;;
41546;SDS011;27271;45.412;10.852;2024-02-28T18:00:13;15.82;;;5.22;;
41546;SDS011;27271;45.412;10.852;2024-02-28T18:03:42;11.10;;;5.85;;
41546;SDS011;27271;45.412;10.852;2024-02-28T18:07:06;11.73;;;5.53;;
41546;SDS011;27271;45.412;10.852;2024-02-28T18:10:28;11.80;;;5.25;;
41546;SDS011;27271;45.412;10.852;2024-02-28T18:13:51;16.10;;;5.13;;
41546;SDS011;27271;45.412;10.852;2024-02-28T18:17:13;13.18;;;4.75;;
41546;SDS011;27271;45.412;10.852;2024-02-28T18:20:35;18.40;;;6.65;;
41546;SDS011;27271;45.412;10.852;2024-02-28T18:23:57;19.60;;;7.20;;
41546;SDS011;27271;45.412;10.852;2024-02-28T18:27:20;14.27;;;7.43;;
41546;SDS011;27271;45.412;10.852;2024-02-28T18:30:43;19.77;;;10.07;;
41546;SDS011;27271;45.412;10.852;2024-02-28T18:34:08;17.20;;;8.00;;
41546;SDS011;27271;45.412;10.852;2024-02-28T18:37:30;22.23;;;7.53;;
41546;SDS011;27271;45.412;10.852;2024-02-28T18:40:55;14.88;;;7.25;;
41546;SDS011;27271;45.412;10.852;2024-02-28T18:44:17;19.20;;;6.68;;
41546;SDS011;27271;45.412;10.852;2024-02-28T18:47:40;15.35;;;5.93;;
41546;SDS011;27271;45.412;10.852;2024-02-28T18:51:02;11.95;;;6.00;;
41546;SDS011;27271;45.412;10.852;2024-02-28T18:54:25;15.73;;;6.13;;
41546;SDS011;27271;45.412;10.852;2024-02-28T18:57:47;16.45;;;6.85;;
41546;SDS011;27271;45.412;10.852;2024-02-28T19:01:09;15.75;;;6.22;;
41546;SDS011;27271;45.412;10.852;2024-02-28T19:04:35;18.52;;;6.75;;
41546;SDS011;27271;45.412;10.852;2024-02-28T19:07:58;16.23;;;6.38;;
41546;SDS011;27271;45.412;10.852;2024-02-28T19:11:20;24.30;;;7.20;;
41546;SDS011;27271;45.412;10.852;2024-02-28T19:14:42;23.70;;;6.82;;
41546;SDS011;27271;45.412;10.852;2024-02-28T19:18:04;19.33;;;6.38;;
41546;SDS011;27271;45.412;10.852;2024-02-28T19:21:27;34.17;;;16.02;;
41546;SDS011;27271;45.412;10.852;2024-02-28T19:24:49;24.35;;;12.15;;
41546;SDS011;27271;45.412;10.852;2024-02-28T19:28:12;32.70;;;20.45;;
41546;SDS011;27271;45.412;10.852;2024-02-28T19:31:35;22.30;;;9.13;;
41546;SDS011;27271;45.412;10.852;2024-02-28T19:34:57;18.40;;;7.97;;
41546;SDS011;27271;45.412;10.852;2024-02-28T19:38:20;22.13;;;12.43;;
41546;SDS011;27271;45.412;10.852;2024-02-28T19:41:42;19.92;;;9.10;;
41546;SDS011;27271;45.412;10.852;2024-02-28T19:45:04;21.15;;;10.43;;
41546;SDS011;27271;45.412;10.852;2024-02-28T19:48:27;30.73;;;9.35;;
41546;SDS011;27271;45.412;10.852;2024-02-28T19:51:50;15.45;;;8.38;;
41546;SDS011;27271;45.412;10.852;2024-02-28T19:55:12;14.73;;;7.70;;
41546;SDS011;27271;45.412;10.852;2024-02-28T19:58:34;17.55;;;7.40;;